sensor_id;sensor_type;location;lat;lon;timestamp;P1;durP1;ratioP1;P2;durP2;ratioP2
27357;SDS011;14831;50.474;7.616;2023-04-03T00:00:35;0.6;;;0.6;;
27357;SDS011;14831;50.474;7.616;2023-04-03T00:05:35;0.6;;;0.6;;
27357;SDS011;14831;50.474;7.616;2023-04-03T00:10:35;0.6;;;0.6;;
27357;SDS011;14831;50.474;7.616;2023-04-03T00:15:36;0.6;;;0.6;;
27357;SDS011;14831;50.474;7.616;2023-04-03T00:20:35;0.6;;;0.6;;
27357;SDS011;14831;50.474;7.616;2023-04-03T00:25:36;0.2;;;0.2;;
27357;SDS011;14831;50.474;7.616;2023-04-03T00:30:35;0.2;;;0.2;;
27357;SDS011;14831;50.474;7.616;2023-04-03T00:35:35;0.2;;;0.2;;
27357;SDS011;14831;50.474;7.616;2023-04-03T00:40:38;0.2;;;0.2;;
27357;SDS011;14831;50.474;7.616;2023-04-03T00:45:36;0.2;;;0.2;;
27357;SDS011;14831;50.474;7.616;2023-04-03T00:50:38;0.2;;;0.2;;
27357;SDS011;14831;50.474;7.616;2023-04-03T00:55:36;0.5;;;0.5;;
27357;SDS011;14831;50.474;7.616;2023-04-03T01:00:37;0.5;;;0.5;;
27357;SDS011;14831;50.474;7.616;2023-04-03T01:05:35;0.5;;;0.5;;
27357;SDS011;14831;50.474;7.616;2023-04-03T01:10:35;0.5;;;0.5;;
27357;SDS011;14831;50.474;7.616;2023-04-03T01:15:35;0.5;;;0.5;;
27357;SDS011;14831;50.474;7.616;2023-04-03T01:20:45;0.5;;;0.5;;
27357;SDS011;14831;50.474;7.616;2023-04-03T01:25:37;0.5;;;0.5;;
27357;SDS011;14831;50.474;7.616;2023-04-03T01:30:41;0.5;;;0.5;;
27357;SDS011;14831;50.474;7.616;2023-04-03T01:35:35;0.5;;;0.5;;
27357;SDS011;14831;50.474;7.616;2023-04-03T01:40:35;0.5;;;0.5;;
27357;SDS011;14831;50.474;7.616;2023-04-03T01:45:35;0.5;;;0.5;;
27357;SDS011;14831;50.474;7.616;2023-04-03T01:50:35;0.5;;;0.5;;
27357;SDS011;14831;50.474;7.616;2023-04-03T01:55:35;0.4;;;0.4;;
27357;SDS011;14831;50.474;7.616;2023-04-03T02:00:35;0.4;;;0.4;;
27357;SDS011;14831;50.474;7.616;2023-04-03T02:05:35;0.4;;;0.4;;
27357;SDS011;14831;50.474;7.616;2023-04-03T02:10:35;0.4;;;0.4;;
27357;SDS011;14831;50.474;7.616;2023-04-03T02:15:37;0.4;;;0.4;;
27357;SDS011;14831;50.474;7.616;2023-04-03T02:20:35;0.4;;;0.4;;
27357;SDS011;14831;50.474;7.616;2023-04-03T02:25:35;0.5;;;0.5;;
27357;SDS011;14831;50.474;7.616;2023-04-03T02:30:35;0.5;;;0.5;;
27357;SDS011;14831;50.474;7.616;2023-04-03T02:35:36;0.5;;;0.5;;
27357;SDS011;14831;50.474;7.616;2023-04-03T02:40:35;0.5;;;0.5;;
27357;SDS011;14831;50.474;7.616;2023-04-03T02:45:35;0.5;;;0.5;;
27357;SDS011;14831;50.474;7.616;2023-04-03T02:50:35;0.5;;;0.5;;
27357;SDS011;14831;50.474;7.616;2023-04-03T02:55:35;0.4;;;0.4;;
27357;SDS011;14831;50.474;7.616;2023-04-03T03:00:35;0.4;;;0.4;;
27357;SDS011;14831;50.474;7.616;2023-04-03T03:05:35;0.4;;;0.4;;
27357;SDS011;14831;50.474;7.616;2023-04-03T03:10:35;0.4;;;0.4;;
27357;SDS011;14831;50.474;7.616;2023-04-03T03:15:35;0.4;;;0.4;;
27357;SDS011;14831;50.474;7.616;2023-04-03T03:20:35;0.4;;;0.4;;
27357;SDS011;14831;50.474;7.616;2023-04-03T03:25:38;0.5;;;0.5;;
27357;SDS011;14831;50.474;7.616;2023-04-03T03:30:35;0.5;;;0.5;;
27357;SDS011;14831;50.474;7.616;2023-04-03T03:35:35;0.5;;;0.5;;
27357;SDS011;14831;50.474;7.616;2023-04-03T03:40:35;0.5;;;0.5;;
27357;SDS011;14831;50.474;7.616;2023-04-03T03:45:35;0.5;;;0.5;;
27357;SDS011;14831;50.474;7.616;2023-04-03T03:50:35;0.5;;;0.5;;
27357;SDS011;14831;50.474;7.616;2023-04-03T03:55:35;0.4;;;0.4;;
27357;SDS011;14831;50.474;7.616;2023-04-03T04:00:35;0.4;;;0.4;;
27357;SDS011;14831;50.474;7.616;2023-04-03T04:05:35;0.4;;;0.4;;
27357;SDS011;14831;50.474;7.616;2023-04-03T04:10:37;0.4;;;0.4;;
27357;SDS011;14831;50.474;7.616;2023-04-03T04:15:35;0.4;;;0.4;;
27357;SDS011;14831;50.474;7.616;2023-04-03T04:20:35;0.4;;;0.4;;
27357;SDS011;14831;50.474;7.616;2023-04-03T04:25:35;0.4;;;0.4;;
27357;SDS011;14831;50.474;7.616;2023-04-03T04:30:35;0.4;;;0.4;;
27357;SDS011;14831;50.474;7.616;2023-04-03T04:35:35;0.4;;;0.4;;
27357;SDS011;14831;50.474;7.616;2023-04-03T04:40:35;0.4;;;0.4;;
27357;SDS011;14831;50.474;7.616;2023-04-03T04:45:35;0.4;;;0.4;;
27357;SDS011;14831;50.474;7.616;2023-04-03T04:50:35;0.4;;;0.4;;
27357;SDS011;14831;50.474;7.616;2023-04-03T04:55:35;0.4;;;0.4;;
27357;SDS011;14831;50.474;7.616;2023-04-03T05:00:35;0.4;;;0.4;;
27357;SDS011;14831;50.474;7.616;2023-04-03T05:05:35;0.4;;;0.4;;
27357;SDS011;14831;50.474;7.616;2023-04-03T05:10:35;0.4;;;0.4;;
27357;SDS011;14831;50.474;7.616;2023-04-03T05:15:35;0.4;;;0.4;;
27357;SDS011;14831;50.474;7.616;2023-04-03T05:20:35;0.4;;;0.4;;
27357;SDS011;14831;50.474;7.616;2023-04-03T05:25:37;0.3;;;0.3;;
27357;SDS011;14831;50.474;7.616;2023-04-03T05:30:35;0.3;;;0.3;;
27357;SDS011;14831;50.474;7.616;2023-04-03T05:35:35;0.3;;;0.3;;
27357;SDS011;14831;50.474;7.616;2023-04-03T05:40:35;0.3;;;0.3;;
27357;SDS011;14831;50.474;7.616;2023-04-03T05:45:35;0.3;;;0.3;;
27357;SDS011;14831;50.474;7.616;2023-04-03T05:50:35;0.3;;;0.3;;
27357;SDS011;14831;50.474;7.616;2023-04-03T05:55:35;0.5;;;0.5;;
27357;SDS011;14831;50.474;7.616;2023-04-03T06:00:35;0.5;;;0.5;;
27357;SDS011;14831;50.474;7.616;2023-04-03T06:05:35;0.5;;;0.5;;
27357;SDS011;14831;50.474;7.616;2023-04-03T06:10:35;0.5;;;0.5;;
27357;SDS011;14831;50.474;7.616;2023-04-03T06:15:35;0.5;;;0.5;;
27357;SDS011;14831;50.474;7.616;2023-04-03T06:20:35;0.5;;;0.5;;
27357;SDS011;14831;50.474;7.616;2023-04-03T06:25:35;1.0;;;0.4;;
27357;SDS011;14831;50.474;7.616;2023-04-03T06:30:36;1.0;;;0.4;;
27357;SDS011;14831;50.474;7.616;2023-04-03T06:35:35;1.0;;;0.4;;
27357;SDS011;14831;50.474;7.616;2023-04-03T06:40:35;1.0;;;0.4;;
27357;SDS011;14831;50.474;7.616;2023-04-03T06:45:35;1.0;;;0.4;;
27357;SDS011;14831;50.474;7.616;2023-04-03T06:50:35;1.0;;;0.4;;
27357;SDS011;14831;50.474;7.616;2023-04-03T06:55:35;0.5;;;0.5;;
27357;SDS011;14831;50.474;7.616;2023-04-03T07:00:35;0.5;;;0.5;;
27357;SDS011;14831;50.474;7.616;2023-04-03T07:05:35;0.5;;;0.5;;
27357;SDS011;14831;50.474;7.616;2023-04-03T07:10:37;0.5;;;0.5;;
27357;SDS011;14831;50.474;7.616;2023-04-03T07:15:35;0.5;;;0.5;;
27357;SDS011;14831;50.474;7.616;2023-04-03T07:20:35;0.5;;;0.5;;
27357;SDS011;14831;50.474;7.616;2023-04-03T07:25:35;0.9;;;0.6;;
27357;SDS011;14831;50.474;7.616;2023-04-03T07:30:44;0.9;;;0.6;;
27357;SDS011;14831;50.474;7.616;2023-04-03T07:35:35;0.9;;;0.6;;
27357;SDS011;14831;50.474;7.616;2023-04-03T07:40:36;0.9;;;0.6;;
27357;SDS011;14831;50.474;7.616;2023-04-03T07:45:35;0.7;;;0.4;;
27357;SDS011;14831;50.474;7.616;2023-04-03T07:50:35;0.7;;;0.4;;
27357;SDS011;14831;50.474;7.616;2023-04-03T07:55:35;0.7;;;0.4;;
27357;SDS011;14831;50.474;7.616;2023-04-03T08:00:35;0.7;;;0.4;;
27357;SDS011;14831;50.474;7.616;2023-04-03T08:05:36;0.7;;;0.4;;
27357;SDS011;14831;50.474;7.616;2023-04-03T08:10:35;0.7;;;0.4;;
27357;SDS011;14831;50.474;7.616;2023-04-03T08:15:36;1.0;;;0.5;;
27357;SDS011;14831;50.474;7.616;2023-04-03T08:20:35;1.0;;;0.5;;
27357;SDS011;14831;50.474;7.616;2023-04-03T08:25:38;1.0;;;0.5;;
27357;SDS011;14831;50.474;7.616;2023-04-03T08:30:35;1.0;;;0.5;;
27357;SDS011;14831;50.474;7.616;2023-04-03T08:35:38;1.0;;;0.5;;
27357;SDS011;14831;50.474;7.616;2023-04-03T08:40:35;1.0;;;0.5;;
27357;SDS011;14831;50.474;7.616;2023-04-03T08:45:42;2.4;;;0.7;;
27357;SDS011;14831;50.474;7.616;2023-04-03T08:50:39;2.4;;;0.7;;
27357;SDS011;14831;50.474;7.616;2023-04-03T08:55:39;2.4;;;0.7;;
27357;SDS011;14831;50.474;7.616;2023-04-03T09:00:43;2.4;;;0.7;;
27357;SDS011;14831;50.474;7.616;2023-04-03T09:05:39;2.4;;;0.7;;
27357;SDS011;14831;50.474;7.616;2023-04-03T09:10:37;2.4;;;0.7;;
27357;SDS011;14831;50.474;7.616;2023-04-03T09:15:35;2.5;;;0.6;;
27357;SDS011;14831;50.474;7.616;2023-04-03T09:20:41;2.5;;;0.6;;
27357;SDS011;14831;50.474;7.616;2023-04-03T09:25:37;2.5;;;0.6;;
27357;SDS011;14831;50.474;7.616;2023-04-03T09:30:36;2.5;;;0.6;;
27357;SDS011;14831;50.474;7.616;2023-04-03T09:35:36;2.5;;;0.6;;
27357;SDS011;14831;50.474;7.616;2023-04-03T09:40:37;2.5;;;0.6;;
27357;SDS011;14831;50.474;7.616;2023-04-03T09:45:36;1.9;;;0.7;;
27357;SDS011;14831;50.474;7.616;2023-04-03T09:50:36;1.9;;;0.7;;
27357;SDS011;14831;50.474;7.616;2023-04-03T09:55:43;1.9;;;0.7;;
27357;SDS011;14831;50.474;7.616;2023-04-03T10:00:37;1.9;;;0.7;;
27357;SDS011;14831;50.474;7.616;2023-04-03T10:05:37;1.9;;;0.7;;
27357;SDS011;14831;50.474;7.616;2023-04-03T10:10:35;1.9;;;0.7;;
27357;SDS011;14831;50.474;7.616;2023-04-03T10:15:40;1.3;;;0.7;;
27357;SDS011;14831;50.474;7.616;2023-04-03T10:20:39;1.3;;;0.7;;
27357;SDS011;14831;50.474;7.616;2023-04-03T10:25:39;1.3;;;0.7;;
27357;SDS011;14831;50.474;7.616;2023-04-03T10:30:41;1.3;;;0.7;;
27357;SDS011;14831;50.474;7.616;2023-04-03T10:35:44;1.3;;;0.7;;
27357;SDS011;14831;50.474;7.616;2023-04-03T10:40:40;1.3;;;0.7;;
27357;SDS011;14831;50.474;7.616;2023-04-03T10:45:51;1.2;;;0.5;;
27357;SDS011;14831;50.474;7.616;2023-04-03T10:50:41;1.2;;;0.5;;
27357;SDS011;14831;50.474;7.616;2023-04-03T10:55:39;1.2;;;0.5;;
27357;SDS011;14831;50.474;7.616;2023-04-03T11:00:39;1.2;;;0.5;;
27357;SDS011;14831;50.474;7.616;2023-04-03T11:05:40;1.2;;;0.5;;
27357;SDS011;14831;50.474;7.616;2023-04-03T11:10:39;1.2;;;0.5;;
27357;SDS011;14831;50.474;7.616;2023-04-03T11:15:35;0.6;;;0.6;;
27357;SDS011;14831;50.474;7.616;2023-04-03T11:20:36;0.6;;;0.6;;
27357;SDS011;14831;50.474;7.616;2023-04-03T11:25:37;0.6;;;0.6;;
27357;SDS011;14831;50.474;7.616;2023-04-03T11:30:42;0.6;;;0.6;;
27357;SDS011;14831;50.474;7.616;2023-04-03T11:35:36;0.6;;;0.6;;
27357;SDS011;14831;50.474;7.616;2023-04-03T11:40:36;0.6;;;0.6;;
27357;SDS011;14831;50.474;7.616;2023-04-03T11:45:37;0.5;;;0.5;;
27357;SDS011;14831;50.474;7.616;2023-04-03T11:50:41;0.5;;;0.5;;
27357;SDS011;14831;50.474;7.616;2023-04-03T11:55:55;0.5;;;0.5;;
27357;SDS011;14831;50.474;7.616;2023-04-03T12:00:55;0.5;;;0.5;;
27357;SDS011;14831;50.474;7.616;2023-04-03T12:05:35;0.5;;;0.5;;
27357;SDS011;14831;50.474;7.616;2023-04-03T12:10:35;0.5;;;0.5;;
27357;SDS011;14831;50.474;7.616;2023-04-03T12:16:04;1.6;;;0.6;;
27357;SDS011;14831;50.474;7.616;2023-04-03T12:21:07;1.6;;;0.6;;
27357;SDS011;14831;50.474;7.616;2023-04-03T12:25:47;1.6;;;0.6;;
27357;SDS011;14831;50.474;7.616;2023-04-03T12:30:35;1.6;;;0.6;;
27357;SDS011;14831;50.474;7.616;2023-04-03T12:35:37;1.6;;;0.6;;
27357;SDS011;14831;50.474;7.616;2023-04-03T12:40:41;1.6;;;0.6;;
27357;SDS011;14831;50.474;7.616;2023-04-03T12:45:41;1.4;;;0.8;;
27357;SDS011;14831;50.474;7.616;2023-04-03T12:50:35;1.4;;;0.8;;
27357;SDS011;14831;50.474;7.616;2023-04-03T12:55:35;1.4;;;0.8;;
27357;SDS011;14831;50.474;7.616;2023-04-03T13:00:35;1.4;;;0.8;;
27357;SDS011;14831;50.474;7.616;2023-04-03T13:05:35;1.4;;;0.8;;
27357;SDS011;14831;50.474;7.616;2023-04-03T13:10:44;1.4;;;0.8;;
27357;SDS011;14831;50.474;7.616;2023-04-03T13:15:42;2.3;;;1.0;;
27357;SDS011;14831;50.474;7.616;2023-04-03T13:20:36;2.3;;;1.0;;
27357;SDS011;14831;50.474;7.616;2023-04-03T13:25:40;2.3;;;1.0;;
27357;SDS011;14831;50.474;7.616;2023-04-03T13:30:37;2.3;;;1.0;;
27357;SDS011;14831;50.474;7.616;2023-04-03T13:35:37;2.3;;;1.0;;
27357;SDS011;14831;50.474;7.616;2023-04-03T13:40:48;2.3;;;1.0;;
27357;SDS011;14831;50.474;7.616;2023-04-03T13:45:35;2.1;;;0.9;;
27357;SDS011;14831;50.474;7.616;2023-04-03T13:50:51;2.1;;;0.9;;
27357;SDS011;14831;50.474;7.616;2023-04-03T13:55:37;2.1;;;0.9;;
27357;SDS011;14831;50.474;7.616;2023-04-03T14:00:39;2.1;;;0.9;;
27357;SDS011;14831;50.474;7.616;2023-04-03T14:05:35;2.1;;;0.9;;
27357;SDS011;14831;50.474;7.616;2023-04-03T14:10:37;2.1;;;0.9;;
27357;SDS011;14831;50.474;7.616;2023-04-03T14:15:35;1.3;;;0.8;;
27357;SDS011;14831;50.474;7.616;2023-04-03T14:20:35;1.3;;;0.8;;
27357;SDS011;14831;50.474;7.616;2023-04-03T14:25:35;1.3;;;0.8;;
27357;SDS011;14831;50.474;7.616;2023-04-03T14:30:35;1.3;;;0.8;;
27357;SDS011;14831;50.474;7.616;2023-04-03T14:35:36;1.3;;;0.8;;
27357;SDS011;14831;50.474;7.616;2023-04-03T14:40:35;1.3;;;0.8;;
27357;SDS011;14831;50.474;7.616;2023-04-03T14:45:35;1.9;;;0.9;;
27357;SDS011;14831;50.474;7.616;2023-04-03T14:50:35;1.9;;;0.9;;
27357;SDS011;14831;50.474;7.616;2023-04-03T14:55:35;1.9;;;0.9;;
27357;SDS011;14831;50.474;7.616;2023-04-03T15:00:35;1.9;;;0.9;;
27357;SDS011;14831;50.474;7.616;2023-04-03T15:05:35;1.9;;;0.9;;
27357;SDS011;14831;50.474;7.616;2023-04-03T15:10:35;1.9;;;0.9;;
27357;SDS011;14831;50.474;7.616;2023-04-03T15:15:36;1.2;;;0.7;;
27357;SDS011;14831;50.474;7.616;2023-04-03T15:20:35;1.2;;;0.7;;
27357;SDS011;14831;50.474;7.616;2023-04-03T15:25:35;1.2;;;0.7;;
27357;SDS011;14831;50.474;7.616;2023-04-03T15:30:37;1.2;;;0.7;;
27357;SDS011;14831;50.474;7.616;2023-04-03T15:35:35;1.2;;;0.7;;
27357;SDS011;14831;50.474;7.616;2023-04-03T15:40:35;1.2;;;0.7;;
27357;SDS011;14831;50.474;7.616;2023-04-03T15:45:36;0.7;;;0.7;;
27357;SDS011;14831;50.474;7.616;2023-04-03T15:50:36;0.7;;;0.7;;
27357;SDS011;14831;50.474;7.616;2023-04-03T15:55:37;0.7;;;0.7;;
27357;SDS011;14831;50.474;7.616;2023-04-03T16:00:35;0.7;;;0.7;;
27357;SDS011;14831;50.474;7.616;2023-04-03T16:05:36;0.7;;;0.7;;
27357;SDS011;14831;50.474;7.616;2023-04-03T16:10:36;0.7;;;0.7;;
27357;SDS011;14831;50.474;7.616;2023-04-03T16:15:35;1.0;;;0.6;;
27357;SDS011;14831;50.474;7.616;2023-04-03T16:20:35;1.0;;;0.6;;
27357;SDS011;14831;50.474;7.616;2023-04-03T16:25:35;1.0;;;0.6;;
27357;SDS011;14831;50.474;7.616;2023-04-03T16:30:35;1.0;;;0.6;;
27357;SDS011;14831;50.474;7.616;2023-04-03T16:35:35;1.0;;;0.6;;
27357;SDS011;14831;50.474;7.616;2023-04-03T16:40:35;1.0;;;0.6;;
27357;SDS011;14831;50.474;7.616;2023-04-03T16:45:35;0.6;;;0.6;;
27357;SDS011;14831;50.474;7.616;2023-04-03T16:50:35;0.6;;;0.6;;
27357;SDS011;14831;50.474;7.616;2023-04-03T16:59:18;0.6;;;0.6;;
27357;SDS011;14831;50.474;7.616;2023-04-03T17:04:17;0.6;;;0.6;;
27357;SDS011;14831;50.474;7.616;2023-04-03T17:09:18;0.6;;;0.6;;
27357;SDS011;14831;50.474;7.616;2023-04-03T17:14:17;0.8;;;0.6;;
27357;SDS011;14831;50.474;7.616;2023-04-03T17:19:17;0.8;;;0.6;;
27357;SDS011;14831;50.474;7.616;2023-04-03T17:24:18;0.8;;;0.6;;
27357;SDS011;14831;50.474;7.616;2023-04-03T17:29:17;0.8;;;0.6;;
27357;SDS011;14831;50.474;7.616;2023-04-03T17:34:17;0.8;;;0.6;;
27357;SDS011;14831;50.474;7.616;2023-04-03T17:39:17;0.8;;;0.6;;
27357;SDS011;14831;50.474;7.616;2023-04-03T17:44:17;0.7;;;0.5;;
27357;SDS011;14831;50.474;7.616;2023-04-03T17:49:17;0.7;;;0.5;;
27357;SDS011;14831;50.474;7.616;2023-04-03T17:54:18;0.7;;;0.5;;
27357;SDS011;14831;50.474;7.616;2023-04-03T17:59:17;0.7;;;0.5;;
27357;SDS011;14831;50.474;7.616;2023-04-03T18:04:17;0.7;;;0.5;;
27357;SDS011;14831;50.474;7.616;2023-04-03T18:09:20;0.7;;;0.5;;
27357;SDS011;14831;50.474;7.616;2023-04-03T18:14:19;0.4;;;0.4;;
27357;SDS011;14831;50.474;7.616;2023-04-03T18:19:17;0.4;;;0.4;;
27357;SDS011;14831;50.474;7.616;2023-04-03T18:24:19;0.4;;;0.4;;
27357;SDS011;14831;50.474;7.616;2023-04-03T18:29:18;0.4;;;0.4;;
27357;SDS011;14831;50.474;7.616;2023-04-03T18:34:17;0.4;;;0.4;;
27357;SDS011;14831;50.474;7.616;2023-04-03T18:39:17;0.4;;;0.4;;
27357;SDS011;14831;50.474;7.616;2023-04-03T18:44:20;0.4;;;0.4;;
27357;SDS011;14831;50.474;7.616;2023-04-03T18:49:18;0.4;;;0.4;;
27357;SDS011;14831;50.474;7.616;2023-04-03T18:54:17;0.4;;;0.4;;
27357;SDS011;14831;50.474;7.616;2023-04-03T18:59:17;0.4;;;0.4;;
27357;SDS011;14831;50.474;7.616;2023-04-03T19:04:17;0.4;;;0.4;;
27357;SDS011;14831;50.474;7.616;2023-04-03T19:09:18;0.4;;;0.4;;
27357;SDS011;14831;50.474;7.616;2023-04-03T19:14:17;0.5;;;0.5;;
27357;SDS011;14831;50.474;7.616;2023-04-03T19:19:17;0.5;;;0.5;;
27357;SDS011;14831;50.474;7.616;2023-04-03T19:24:17;0.5;;;0.5;;
27357;SDS011;14831;50.474;7.616;2023-04-03T19:29:17;0.5;;;0.5;;
27357;SDS011;14831;50.474;7.616;2023-04-03T19:34:19;0.5;;;0.5;;
27357;SDS011;14831;50.474;7.616;2023-04-03T19:39:17;0.5;;;0.5;;
27357;SDS011;14831;50.474;7.616;2023-04-03T19:44:17;0.7;;;0.5;;
27357;SDS011;14831;50.474;7.616;2023-04-03T19:49:18;0.7;;;0.5;;
27357;SDS011;14831;50.474;7.616;2023-04-03T19:54:18;0.7;;;0.5;;
27357;SDS011;14831;50.474;7.616;2023-04-03T19:59:17;0.7;;;0.5;;
27357;SDS011;14831;50.474;7.616;2023-04-03T20:04:18;0.7;;;0.5;;
27357;SDS011;14831;50.474;7.616;2023-04-03T20:09:18;0.7;;;0.5;;
27357;SDS011;14831;50.474;7.616;2023-04-03T20:14:17;0.5;;;0.5;;
27357;SDS011;14831;50.474;7.616;2023-04-03T20:19:17;0.5;;;0.5;;
27357;SDS011;14831;50.474;7.616;2023-04-03T20:24:17;0.5;;;0.5;;
27357;SDS011;14831;50.474;7.616;2023-04-03T20:29:18;0.5;;;0.5;;
27357;SDS011;14831;50.474;7.616;2023-04-03T20:34:17;0.5;;;0.5;;
27357;SDS011;14831;50.474;7.616;2023-04-03T20:39:17;0.5;;;0.5;;
27357;SDS011;14831;50.474;7.616;2023-04-03T20:44:17;0.5;;;0.5;;
27357;SDS011;14831;50.474;7.616;2023-04-03T20:49:17;0.5;;;0.5;;
27357;SDS011;14831;50.474;7.616;2023-04-03T20:54:18;0.5;;;0.5;;
27357;SDS011;14831;50.474;7.616;2023-04-03T20:59:17;0.5;;;0.5;;
27357;SDS011;14831;50.474;7.616;2023-04-03T21:04:22;0.5;;;0.5;;
27357;SDS011;14831;50.474;7.616;2023-04-03T21:19:19;0.5;;;0.5;;
27357;SDS011;14831;50.474;7.616;2023-04-03T21:24:18;0.5;;;0.5;;
27357;SDS011;14831;50.474;7.616;2023-04-03T21:29:18;0.5;;;0.5;;
27357;SDS011;14831;50.474;7.616;2023-04-03T21:34:19;0.5;;;0.5;;
27357;SDS011;14831;50.474;7.616;2023-04-03T21:39:18;0.5;;;0.5;;
27357;SDS011;14831;50.474;7.616;2023-04-03T21:44:18;0.6;;;0.6;;
27357;SDS011;14831;50.474;7.616;2023-04-03T21:49:18;0.6;;;0.6;;
27357;SDS011;14831;50.474;7.616;2023-04-03T21:54:18;0.6;;;0.6;;
27357;SDS011;14831;50.474;7.616;2023-04-03T21:59:17;0.6;;;0.6;;
27357;SDS011;14831;50.474;7.616;2023-04-03T22:04:17;0.6;;;0.6;;
27357;SDS011;14831;50.474;7.616;2023-04-03T22:09:17;0.6;;;0.6;;
27357;SDS011;14831;50.474;7.616;2023-04-03T22:14:17;0.6;;;0.6;;
27357;SDS011;14831;50.474;7.616;2023-04-03T22:19:17;0.6;;;0.6;;
27357;SDS011;14831;50.474;7.616;2023-04-03T22:24:17;0.6;;;0.6;;
27357;SDS011;14831;50.474;7.616;2023-04-03T22:29:17;0.6;;;0.6;;
27357;SDS011;14831;50.474;7.616;2023-04-03T22:34:17;0.6;;;0.6;;
27357;SDS011;14831;50.474;7.616;2023-04-03T22:39:17;0.6;;;0.6;;
27357;SDS011;14831;50.474;7.616;2023-04-03T22:44:17;0.6;;;0.6;;
27357;SDS011;14831;50.474;7.616;2023-04-03T22:49:17;0.6;;;0.6;;
27357;SDS011;14831;50.474;7.616;2023-04-03T22:54:18;0.6;;;0.6;;
27357;SDS011;14831;50.474;7.616;2023-04-03T22:59:17;0.6;;;0.6;;
27357;SDS011;14831;50.474;7.616;2023-04-03T23:04:17;0.6;;;0.6;;
27357;SDS011;14831;50.474;7.616;2023-04-03T23:09:17;0.6;;;0.6;;
27357;SDS011;14831;50.474;7.616;2023-04-03T23:14:17;0.6;;;0.6;;
27357;SDS011;14831;50.474;7.616;2023-04-03T23:19:17;0.6;;;0.6;;
27357;SDS011;14831;50.474;7.616;2023-04-03T23:24:17;0.6;;;0.6;;
27357;SDS011;14831;50.474;7.616;2023-04-03T23:29:17;0.6;;;0.6;;
27357;SDS011;14831;50.474;7.616;2023-04-03T23:34:17;0.6;;;0.6;;
27357;SDS011;14831;50.474;7.616;2023-04-03T23:39:17;0.6;;;0.6;;
27357;SDS011;14831;50.474;7.616;2023-04-03T23:44:17;0.5;;;0.5;;
27357;SDS011;14831;50.474;7.616;2023-04-03T23:49:17;0.5;;;0.5;;
27357;SDS011;14831;50.474;7.616;2023-04-03T23:54:18;0.5;;;0.5;;
27357;SDS011;14831;50.474;7.616;2023-04-03T23:59:17;0.5;;;0.5;;
